createdAt,value
2022-08-19T00:01:41.706Z,18.05
2022-08-19T00:04:10.941Z,18.02
2022-08-19T00:06:38.952Z,17.99
2022-08-19T00:09:07.658Z,17.93
2022-08-19T00:11:38.575Z,17.88
2022-08-19T00:14:07.349Z,17.82
2022-08-19T00:16:34.007Z,17.74
2022-08-19T00:19:00.846Z,17.68
2022-08-19T00:21:31.171Z,17.66
2022-08-19T00:24:01.555Z,17.66
2022-08-19T00:26:29.422Z,17.71
2022-08-19T00:28:56.330Z,17.72
2022-08-19T00:31:23.271Z,17.80
2022-08-19T00:33:52.692Z,17.88
2022-08-19T00:36:19.276Z,17.89
2022-08-19T00:38:46.200Z,17.90
2022-08-19T00:41:19.033Z,17.87
2022-08-19T00:44:05.256Z,17.81
2022-08-19T00:46:34.159Z,17.75
2022-08-19T00:49:01.926Z,17.72
2022-08-19T00:51:30.161Z,17.67
2022-08-19T00:53:58.254Z,17.65
2022-08-19T00:56:27.252Z,17.62
2022-08-19T00:58:55.458Z,17.63
2022-08-19T01:01:22.348Z,17.60
2022-08-19T01:03:56.745Z,17.60
2022-08-19T01:06:24.460Z,17.55
2022-08-19T01:08:51.013Z,17.57
2022-08-19T01:11:17.970Z,17.78
2022-08-19T01:13:49.249Z,17.88
2022-08-19T01:16:18.324Z,17.92
2022-08-19T01:18:44.830Z,17.95
2022-08-19T01:21:48.723Z,18.02
2022-08-19T01:24:16.100Z,18.08
2022-08-19T01:26:46.689Z,18.08
2022-08-19T01:29:13.359Z,18.10
2022-08-19T01:31:41.754Z,18.16
2022-08-19T01:34:08.968Z,18.19
2022-08-19T01:36:48.246Z,18.21
2022-08-19T01:39:18.228Z,18.22
2022-08-19T01:41:44.816Z,18.30
2022-08-19T01:44:18.447Z,18.37
2022-08-19T01:46:48.244Z,18.42
2022-08-19T01:49:15.175Z,18.48
2022-08-19T01:51:41.678Z,18.49
2022-08-19T01:54:13.519Z,18.47
2022-08-19T01:56:40.205Z,18.48
2022-08-19T01:59:12.336Z,18.46
2022-08-19T02:01:38.990Z,18.39
2022-08-19T02:04:06.675Z,18.39
2022-08-19T02:06:34.032Z,18.36
2022-08-19T02:09:00.848Z,18.34
2022-08-19T02:11:34.498Z,18.34
2022-08-19T02:14:06.662Z,18.35
2022-08-19T02:16:33.674Z,18.34
2022-08-19T02:19:02.964Z,18.35
2022-08-19T02:21:30.240Z,18.27
2022-08-19T02:23:56.999Z,18.26
2022-08-19T02:26:24.475Z,18.24
2022-08-19T02:28:51.131Z,18.27
2022-08-19T02:31:19.878Z,18.24
2022-08-19T02:33:46.897Z,18.24
2022-08-19T02:36:15.487Z,18.19
2022-08-19T02:38:42.959Z,18.18
2022-08-19T02:41:17.450Z,18.13
2022-08-19T02:44:18.360Z,18.10
2022-08-19T02:46:32.588Z,18.12
2022-08-19T02:49:02.090Z,18.09
2022-08-19T02:51:33.725Z,18.09
2022-08-19T02:54:00.952Z,18.03
2022-08-19T02:56:28.308Z,18.04
2022-08-19T02:58:55.973Z,18.01
2022-08-19T03:01:25.482Z,17.99
2022-08-19T03:03:52.518Z,18.02
2022-08-19T03:06:19.962Z,18.03
2022-08-19T03:08:48.111Z,17.97
2022-08-19T03:11:16.874Z,17.96
2022-08-19T03:13:44.341Z,17.91
2022-08-19T03:16:12.626Z,17.91
2022-08-19T03:18:39.645Z,17.89
2022-08-19T03:21:07.226Z,17.87
2022-08-19T03:23:38.964Z,17.85
2022-08-19T03:26:16.552Z,17.83
2022-08-19T03:28:51.340Z,17.78
2022-08-19T03:31:43.664Z,17.80
2022-08-19T03:34:20.951Z,17.83
2022-08-19T03:36:48.107Z,17.77
2022-08-19T03:39:15.206Z,17.76
2022-08-19T03:41:45.343Z,17.70
2022-08-19T03:44:18.255Z,17.62
2022-08-19T03:46:46.142Z,17.59
2022-08-19T03:49:14.059Z,17.61
2022-08-19T03:51:42.275Z,17.59
2022-08-19T03:54:11.613Z,17.60
2022-08-19T03:56:40.189Z,17.61
2022-08-19T03:59:10.003Z,17.74
2022-08-19T04:01:36.678Z,17.77
2022-08-19T04:04:04.636Z,17.75
2022-08-19T04:06:34.985Z,17.71
2022-08-19T04:09:04.113Z,17.74
2022-08-19T04:11:43.100Z,17.72
2022-08-19T04:14:16.742Z,17.72
2022-08-19T04:16:45.393Z,17.75
2022-08-19T04:19:12.433Z,17.78
2022-08-19T04:21:39.257Z,17.83
2022-08-19T04:24:06.395Z,17.76
2022-08-19T04:26:35.987Z,17.84
2022-08-19T04:29:11.712Z,17.85
2022-08-19T04:31:39.886Z,17.89
2022-08-19T04:34:08.223Z,17.82
2022-08-19T04:36:38.773Z,17.78
2022-08-19T04:39:08.294Z,17.80
2022-08-19T04:41:53.610Z,17.76
2022-08-19T04:44:20.561Z,17.85
2022-08-19T04:46:50.860Z,17.88
2022-08-19T04:49:20.201Z,17.92
2022-08-19T04:51:48.691Z,17.92
2022-08-19T04:54:19.069Z,17.90
2022-08-19T04:57:01.335Z,17.87
2022-08-19T04:59:27.859Z,17.92
2022-08-19T05:01:54.484Z,17.96
2022-08-19T05:04:21.401Z,17.93
2022-08-19T05:06:49.939Z,17.92
2022-08-19T05:09:17.195Z,17.92
2022-08-19T05:11:44.820Z,17.98
2022-08-19T05:14:13.625Z,18.02
2022-08-19T05:16:40.871Z,17.98
2022-08-19T05:19:25.953Z,18.00
2022-08-19T05:22:11.221Z,18.03
2022-08-19T05:24:51.196Z,18.07
2022-08-19T05:27:24.635Z,18.15
2022-08-19T05:29:51.415Z,18.10
2022-08-19T05:32:18.015Z,18.07
2022-08-19T05:34:44.632Z,18.10
2022-08-19T05:37:11.534Z,18.14
2022-08-19T05:39:38.831Z,18.21
2022-08-19T05:42:10.137Z,18.20
2022-08-19T05:44:40.425Z,18.22
2022-08-19T05:47:09.337Z,18.23
2022-08-19T05:49:37.106Z,18.24
2022-08-19T05:52:09.511Z,18.33
2022-08-19T05:54:41.082Z,18.35
2022-08-19T05:57:08.585Z,18.33
2022-08-19T05:59:39.133Z,18.32
2022-08-19T06:02:07.617Z,18.29
2022-08-19T06:04:34.495Z,18.32
2022-08-19T06:07:12.808Z,18.36
2022-08-19T06:09:39.891Z,18.47
2022-08-19T06:12:07.506Z,18.46
2022-08-19T06:14:37.528Z,18.51
2022-08-19T06:17:07.621Z,18.57
2022-08-19T06:19:34.746Z,18.63
2022-08-19T06:22:08.288Z,18.58
2022-08-19T06:24:35.420Z,18.71
2022-08-19T06:27:02.414Z,18.78
2022-08-19T06:29:30.846Z,18.88
2022-08-19T06:32:00.297Z,18.96
2022-08-19T06:34:29.164Z,18.93
2022-08-19T06:36:57.171Z,19.02
2022-08-19T06:39:29.760Z,19.19
2022-08-19T06:42:01.220Z,19.35
2022-08-19T06:44:30.542Z,19.45
2022-08-19T06:46:58.789Z,19.43
2022-08-19T06:49:28.600Z,19.35
2022-08-19T06:51:57.699Z,19.43
2022-08-19T06:54:24.397Z,19.51
2022-08-19T06:57:04.909Z,19.58
2022-08-19T06:59:33.535Z,19.76
2022-08-19T07:02:05.611Z,19.91
2022-08-19T07:04:33.475Z,19.88
2022-08-19T07:07:20.220Z,19.95
2022-08-19T07:09:57.114Z,19.99
2022-08-19T07:12:30.186Z,19.90
2022-08-19T07:14:58.319Z,19.82
2022-08-19T07:17:24.863Z,19.81
2022-08-19T07:19:51.780Z,19.72
2022-08-19T07:22:23.435Z,19.78
2022-08-19T07:24:51.349Z,19.86
2022-08-19T07:27:24.132Z,20.00
2022-08-19T07:29:55.775Z,20.06
2022-08-19T07:32:28.819Z,20.17
2022-08-19T07:34:56.455Z,20.31
2022-08-19T07:37:27.304Z,20.39
2022-08-19T07:39:56.254Z,20.31
2022-08-19T07:42:26.057Z,20.32
2022-08-19T07:44:52.641Z,20.52
2022-08-19T07:47:49.071Z,20.65
2022-08-19T07:50:09.677Z,20.74
2022-08-19T07:52:39.611Z,20.94
2022-08-19T07:55:39.908Z,21.03
2022-08-19T07:57:55.865Z,21.03
2022-08-19T08:00:24.491Z,21.05
2022-08-19T08:02:52.229Z,21.22
2022-08-19T08:05:43.413Z,21.53
2022-08-19T08:08:29.519Z,21.81
2022-08-19T08:10:56.854Z,21.78
2022-08-19T08:13:24.753Z,21.85
2022-08-19T08:15:52.198Z,21.88
2022-08-19T08:18:21.721Z,22.13
2022-08-19T08:20:48.947Z,22.26
2022-08-19T08:23:26.734Z,22.07
2022-08-19T08:25:56.391Z,22.15
2022-08-19T08:28:24.094Z,22.38
2022-08-19T08:30:51.512Z,22.50
2022-08-19T08:33:33.718Z,22.43
2022-08-19T08:36:08.322Z,22.30
2022-08-19T08:38:43.040Z,22.44
2022-08-19T08:41:31.087Z,23.09
2022-08-19T08:43:58.500Z,23.77
2022-08-19T08:46:39.208Z,24.22
2022-08-19T08:49:29.992Z,24.15
2022-08-19T08:52:32.635Z,23.81
2022-08-19T08:55:10.430Z,23.53
2022-08-19T08:58:00.146Z,23.68
2022-08-19T09:00:39.231Z,23.66
2022-08-19T09:03:40.071Z,23.62
2022-08-19T09:06:37.808Z,23.38
2022-08-19T09:09:36.158Z,23.13
2022-08-19T09:15:16.356Z,22.84
2022-08-19T09:20:28.336Z,22.79
2022-08-19T09:22:59.759Z,22.84
2022-08-19T09:28:20.606Z,24.00
2022-08-19T09:30:49.491Z,24.51
2022-08-19T09:36:08.882Z,24.51
2022-08-19T09:38:36.685Z,24.60
2022-08-19T09:41:20.147Z,24.07
2022-08-19T09:46:37.134Z,23.66
2022-08-19T09:49:06.340Z,23.44
2022-08-19T09:51:39.465Z,23.74
2022-08-19T09:54:11.298Z,24.97
2022-08-19T09:56:38.361Z,26.36
2022-08-19T09:59:05.183Z,27.10
2022-08-19T10:06:56.965Z,24.66
2022-08-19T10:09:33.969Z,24.71
2022-08-19T10:12:17.901Z,24.67
2022-08-19T10:14:47.355Z,24.61
2022-08-19T10:17:19.276Z,24.40
2022-08-19T10:19:55.620Z,24.24
2022-08-19T10:22:35.516Z,24.21
2022-08-19T10:25:06.552Z,23.89
2022-08-19T10:27:33.195Z,23.74
2022-08-19T10:30:10.219Z,23.43
2022-08-19T10:32:39.964Z,23.41
2022-08-19T10:35:14.319Z,23.57
2022-08-19T10:37:57.453Z,23.58
2022-08-19T10:40:29.508Z,23.86
2022-08-19T10:42:59.392Z,24.10
2022-08-19T10:48:08.093Z,24.21
2022-08-19T10:53:45.741Z,24.23
2022-08-19T10:56:31.165Z,24.03
2022-08-19T10:59:02.596Z,24.13
2022-08-19T11:01:30.900Z,24.08
2022-08-19T11:04:00.688Z,23.87
2022-08-19T11:06:27.444Z,23.75
2022-08-19T11:08:55.392Z,23.46
2022-08-19T11:11:23.031Z,23.63
2022-08-19T11:13:50.944Z,23.92
2022-08-19T11:16:20.295Z,24.00
2022-08-19T11:18:52.473Z,24.34
2022-08-19T11:21:20.381Z,24.23
2022-08-19T11:23:48.777Z,24.08
2022-08-19T11:28:58.199Z,23.95
2022-08-19T11:31:29.118Z,23.98
2022-08-19T11:34:09.625Z,23.76
2022-08-19T11:36:42.420Z,23.99
2022-08-19T11:39:10.472Z,23.89
2022-08-19T11:41:37.007Z,24.19
2022-08-19T11:44:05.492Z,24.41
2022-08-19T11:46:32.611Z,24.62
2022-08-19T11:49:01.423Z,24.24
2022-08-19T11:56:34.857Z,23.91
2022-08-19T11:59:01.849Z,23.75
2022-08-19T12:01:29.085Z,23.85
2022-08-19T12:03:56.861Z,23.74
2022-08-19T12:06:29.628Z,23.89
2022-08-19T12:08:57.449Z,24.00
2022-08-19T12:11:24.645Z,23.64
2022-08-19T12:13:51.645Z,23.69
2022-08-19T12:16:21.915Z,23.87
2022-08-19T12:18:51.822Z,23.76
2022-08-19T12:21:23.229Z,24.01
2022-08-19T12:23:55.227Z,24.42
2022-08-19T12:26:22.413Z,24.55
2022-08-19T12:28:51.722Z,24.74
2022-08-19T12:31:20.419Z,24.89
2022-08-19T12:34:00.874Z,24.92
2022-08-19T12:36:27.437Z,25.04
2022-08-19T12:44:29.247Z,25.73
2022-08-19T12:46:59.409Z,26.34
2022-08-19T12:49:50.230Z,27.22
2022-08-19T12:52:28.604Z,28.07
2022-08-19T12:54:56.659Z,28.10
2022-08-19T12:57:34.929Z,28.21
2022-08-19T13:00:14.513Z,28.26
2022-08-19T13:02:45.158Z,27.91
2022-08-19T13:05:27.706Z,27.93
2022-08-19T13:08:00.499Z,28.14
2022-08-19T13:10:29.921Z,29.07
2022-08-19T13:12:56.807Z,29.83
2022-08-19T13:15:32.886Z,28.82
2022-08-19T13:17:59.615Z,27.87
2022-08-19T13:20:29.871Z,27.41
2022-08-19T13:22:58.074Z,26.57
2022-08-19T13:25:29.039Z,25.90
2022-08-19T13:33:47.162Z,25.02
2022-08-19T13:38:55.360Z,24.31
2022-08-19T13:41:21.873Z,23.90
2022-08-19T13:43:49.962Z,23.95
2022-08-19T13:46:17.698Z,23.73
2022-08-19T13:48:48.021Z,23.70
2022-08-19T13:51:17.249Z,23.55
2022-08-19T13:53:47.922Z,22.77
2022-08-19T13:56:17.232Z,22.07
2022-08-19T13:58:44.732Z,21.63
2022-08-19T14:01:11.601Z,21.41
2022-08-19T14:03:39.132Z,21.41
2022-08-19T14:06:05.837Z,21.82
2022-08-19T14:08:33.273Z,21.94
2022-08-19T14:11:00.454Z,22.07
2022-08-19T14:13:38.789Z,22.19
2022-08-19T14:16:13.285Z,22.23
2022-08-19T14:21:23.520Z,22.22
2022-08-19T14:26:32.753Z,21.98
2022-08-19T14:29:00.575Z,21.80
2022-08-19T14:31:30.737Z,21.79
2022-08-19T14:33:58.821Z,21.96
2022-08-19T14:36:25.360Z,22.25
2022-08-19T14:38:53.251Z,22.43
2022-08-19T14:41:22.727Z,22.40
2022-08-19T14:43:51.253Z,22.21
2022-08-19T14:46:23.737Z,22.38
2022-08-19T14:48:52.757Z,22.39
2022-08-19T14:51:20.972Z,22.20
2022-08-19T14:56:31.600Z,22.36
2022-08-19T14:59:01.485Z,22.85
2022-08-19T15:01:28.375Z,23.37
2022-08-19T15:03:55.747Z,23.39
2022-08-19T15:06:23.914Z,23.27
2022-08-19T15:08:52.722Z,22.99
2022-08-19T15:11:22.329Z,23.02
2022-08-19T15:13:49.090Z,23.02
2022-08-19T15:16:18.087Z,23.08
2022-08-19T15:21:29.150Z,22.93
2022-08-19T15:23:57.714Z,22.89
2022-08-19T15:26:26.658Z,22.49
2022-08-19T15:28:53.236Z,22.14
2022-08-19T15:31:36.381Z,22.11
2022-08-19T15:34:07.049Z,22.21
2022-08-19T15:36:35.308Z,22.01
2022-08-19T15:41:46.980Z,21.72
2022-08-19T15:46:57.398Z,22.22
2022-08-19T15:49:23.988Z,22.25
2022-08-19T15:51:52.065Z,22.33
2022-08-19T15:57:07.637Z,22.81
2022-08-19T16:00:02.911Z,23.22
2022-08-19T16:02:48.569Z,23.87
2022-08-19T16:05:42.189Z,24.75
2022-08-19T16:08:10.355Z,25.48
2022-08-19T16:10:44.631Z,26.16
2022-08-19T16:13:11.214Z,26.29
2022-08-19T16:18:18.279Z,25.83
2022-08-19T16:20:46.630Z,25.58
2022-08-19T16:23:13.144Z,25.37
2022-08-19T16:28:20.318Z,26.89
2022-08-19T16:30:48.643Z,26.74
2022-08-19T16:33:22.909Z,26.13
2022-08-19T16:35:52.032Z,25.86
2022-08-19T16:38:27.706Z,26.08
2022-08-19T16:40:58.825Z,27.21
2022-08-19T16:43:26.166Z,27.88
2022-08-19T16:48:41.948Z,26.45
2022-08-19T16:51:10.541Z,25.97
2022-08-19T16:53:39.141Z,25.25
2022-08-19T16:56:13.792Z,24.93
2022-08-19T17:01:27.062Z,24.07
2022-08-19T17:03:53.962Z,23.84
2022-08-19T17:06:26.059Z,23.78
2022-08-19T17:11:38.781Z,23.27
2022-08-19T17:14:05.895Z,23.14
2022-08-19T17:16:35.008Z,23.06
2022-08-19T17:21:32.572Z,22.64
2022-08-19T17:24:00.739Z,22.45
2022-08-19T17:26:35.991Z,22.36
2022-08-19T17:29:13.406Z,22.32
2022-08-19T17:31:40.139Z,22.16
2022-08-19T17:34:06.972Z,22.15
2022-08-19T17:36:35.968Z,22.06
2022-08-19T17:39:07.242Z,21.98
2022-08-19T17:41:35.135Z,21.93
2022-08-19T17:44:03.274Z,21.86
2022-08-19T17:49:11.660Z,21.69
2022-08-19T17:51:42.204Z,21.70
2022-08-19T17:54:16.128Z,21.77
2022-08-19T17:56:43.672Z,21.53
2022-08-19T17:59:13.732Z,21.47
2022-08-19T18:01:53.603Z,21.34
2022-08-19T18:04:25.407Z,21.37
2022-08-19T18:06:54.365Z,21.38
2022-08-19T18:09:41.295Z,21.44
2022-08-19T18:14:54.913Z,21.34
2022-08-19T18:17:23.407Z,21.41
2022-08-19T18:19:50.276Z,21.48
2022-08-19T18:22:27.706Z,21.43
2022-08-19T18:24:55.511Z,21.34
2022-08-19T18:27:22.433Z,21.29
2022-08-19T18:29:49.156Z,21.29
2022-08-19T18:32:23.919Z,21.30
2022-08-19T18:34:51.277Z,21.17
2022-08-19T18:37:17.915Z,21.14
2022-08-19T18:40:03.261Z,21.16
2022-08-19T18:48:47.314Z,21.25
2022-08-19T18:51:16.206Z,21.26
2022-08-19T18:53:52.991Z,21.21
2022-08-19T18:56:20.071Z,21.13
2022-08-19T18:58:58.564Z,21.10
2022-08-19T19:01:36.768Z,21.16
2022-08-19T19:04:06.644Z,21.12
2022-08-19T19:06:47.635Z,21.07
2022-08-19T19:09:17.949Z,20.99
2022-08-19T19:11:46.796Z,21.04
2022-08-19T19:14:27.692Z,21.07
2022-08-19T19:17:14.084Z,21.05
2022-08-19T19:19:42.959Z,20.96
2022-08-19T19:22:13.095Z,20.98
2022-08-19T19:24:44.083Z,20.93
2022-08-19T19:29:53.555Z,20.97
2022-08-19T19:32:23.812Z,20.96
2022-08-19T19:34:50.734Z,20.98
2022-08-19T19:37:21.267Z,20.93
2022-08-19T19:39:48.282Z,20.89
2022-08-19T19:42:21.188Z,20.91
2022-08-19T19:44:50.350Z,20.88
2022-08-19T19:47:18.996Z,20.91
2022-08-19T19:50:10.535Z,20.90
2022-08-19T19:52:33.505Z,20.88
2022-08-19T19:55:01.256Z,20.88
2022-08-19T19:57:30.272Z,20.84
2022-08-19T20:02:47.795Z,20.80
2022-08-19T20:05:21.439Z,20.81
2022-08-19T20:08:07.333Z,20.84
2022-08-19T20:10:34.340Z,20.81
2022-08-19T20:13:04.778Z,20.79
2022-08-19T20:15:32.258Z,20.79
2022-08-19T20:18:04.714Z,20.73
2022-08-19T20:20:36.695Z,20.71
2022-08-19T20:23:03.268Z,20.67
2022-08-19T20:25:32.295Z,20.61
2022-08-19T20:28:01.112Z,20.57
2022-08-19T20:33:08.936Z,20.55
2022-08-19T20:35:36.703Z,20.53
2022-08-19T20:38:04.185Z,20.46
2022-08-19T20:40:30.801Z,20.43
2022-08-19T20:42:57.447Z,20.44
2022-08-19T20:45:33.038Z,20.49
2022-08-19T20:48:09.935Z,20.49
2022-08-19T20:50:37.178Z,20.50
2022-08-19T20:53:19.580Z,20.54
2022-08-19T20:55:49.614Z,20.54
2022-08-19T20:58:21.377Z,20.54
2022-08-19T21:00:49.302Z,20.57
2022-08-19T21:03:21.529Z,20.48
2022-08-19T21:05:48.547Z,20.43
2022-08-19T21:08:18.239Z,20.30
2022-08-19T21:10:46.459Z,20.21
2022-08-19T21:13:13.346Z,20.18
2022-08-19T21:15:43.106Z,20.11
2022-08-19T21:18:14.727Z,20.04
2022-08-19T21:20:41.900Z,19.95
2022-08-19T21:23:11.284Z,19.93
2022-08-19T21:25:39.110Z,19.87
2022-08-19T21:28:06.379Z,19.78
2022-08-19T21:30:34.644Z,19.69
2022-08-19T21:35:44.406Z,19.55
2022-08-19T21:38:10.929Z,19.47
2022-08-19T21:40:37.637Z,19.39
2022-08-19T21:43:05.603Z,19.40
2022-08-19T21:45:36.445Z,19.43
2022-08-19T21:48:03.322Z,19.45
2022-08-19T21:50:32.501Z,19.44
2022-08-19T21:53:00.683Z,19.36
2022-08-19T21:55:28.542Z,19.35
2022-08-19T21:57:55.425Z,19.31
2022-08-19T22:00:23.829Z,19.24
2022-08-19T22:02:51.717Z,19.22
2022-08-19T22:08:13.159Z,19.14
2022-08-19T22:10:39.868Z,19.14
2022-08-19T22:15:50.358Z,19.16
2022-08-19T22:18:17.936Z,19.18
2022-08-19T22:20:45.130Z,19.19
2022-08-19T22:23:11.630Z,19.16
2022-08-19T22:25:40.685Z,19.15
2022-08-19T22:28:11.036Z,19.17
2022-08-19T22:30:41.707Z,19.20
2022-08-19T22:33:16.827Z,19.21
2022-08-19T22:35:45.207Z,19.19
2022-08-19T22:38:12.759Z,19.15
2022-08-19T22:40:44.251Z,19.09
2022-08-19T22:43:20.081Z,19.03
2022-08-19T22:45:48.051Z,19.00
2022-08-19T22:48:17.418Z,18.95
2022-08-19T22:51:05.341Z,18.93
2022-08-19T22:53:37.249Z,18.87
2022-08-19T22:56:05.856Z,18.82
2022-08-19T22:58:32.582Z,18.77
2022-08-19T23:00:59.957Z,18.72
2022-08-19T23:03:26.555Z,18.64
2022-08-19T23:05:53.569Z,18.55
2022-08-19T23:08:20.081Z,18.49
2022-08-19T23:10:49.240Z,18.44
2022-08-19T23:13:17.293Z,18.47
2022-08-19T23:15:45.331Z,18.46
2022-08-19T23:18:12.525Z,18.46
2022-08-19T23:20:41.118Z,18.47
2022-08-19T23:23:10.709Z,18.47
2022-08-19T23:25:38.573Z,18.46
2022-08-19T23:28:35.346Z,18.48
2022-08-19T23:31:03.998Z,18.52
2022-08-19T23:33:46.555Z,18.53
2022-08-19T23:36:19.536Z,18.55
2022-08-19T23:38:48.059Z,18.56
2022-08-19T23:41:15.941Z,18.57
2022-08-19T23:43:42.948Z,18.55
2022-08-19T23:46:12.360Z,18.53
2022-08-19T23:48:39.801Z,18.52
2022-08-19T23:51:09.717Z,18.49
2022-08-19T23:53:38.902Z,18.46
2022-08-19T23:56:07.407Z,18.44
2022-08-19T23:58:35.434Z,18.40
